Time;durP1;ratioP1;P1;durP2;ratioP2;P2;SDS_P1;SDS_P2;PMS_P1;PMS_P2;Temp;Humidity;BMP_temperature;BMP_pressure;BME280_temperature;BME280_humidity;BME280_pressure;Samples;Min_cycle;Max_cycle;Signal;HPM_P1;HPM_P2
2021/03/22 00:00:04;;;;;;;16.13;13.25;;;7.30;99.90;;;;;;5010029;28;20056;-87
2021/03/22 00:02:31;;;;;;;15.63;13.52;;;7.20;99.90;;;;;;5010469;28;20108;-87
2021/03/22 00:04:58;;;;;;;16.85;13.43;;;7.20;99.90;;;;;;5009704;28;20093;-87
2021/03/22 00:07:25;;;;;;;15.80;12.75;;;7.20;99.90;;;;;;5012142;28;20045;-85
2021/03/22 00:09:51;;;;;;;16.13;13.63;;;7.10;99.90;;;;;;5009849;28;20054;-87
2021/03/22 00:12:18;;;;;;;14.55;12.98;;;7.10;99.90;;;;;;5006292;28;20052;-87
2021/03/22 00:14:44;;;;;;;17.35;13.68;;;7.10;99.90;;;;;;4998789;28;20049;-87
2021/03/22 00:17:11;;;;;;;17.00;14.52;;;7.10;99.90;;;;;;4996915;28;20049;-87
2021/03/22 00:19:38;;;;;;;16.48;13.65;;;7.00;99.90;;;;;;5003692;28;20094;-85
2021/03/22 00:22:05;;;;;;;17.35;14.75;;;7.00;99.90;;;;;;5000528;28;20156;-87
2021/03/22 00:24:32;;;;;;;18.10;14.63;;;6.90;99.90;;;;;;4999224;28;20534;-87
2021/03/22 00:26:58;;;;;;;16.92;14.77;;;6.90;99.90;;;;;;5001775;28;20466;-84
2021/03/22 00:29:25;;;;;;;17.83;14.90;;;6.90;99.90;;;;;;5008367;28;20050;-87
2021/03/22 00:31:52;;;;;;;19.70;15.35;;;6.80;99.90;;;;;;4997237;28;20050;-84
2021/03/22 00:34:19;;;;;;;17.70;15.40;;;6.80;99.90;;;;;;5010628;28;20049;-84
2021/03/22 00:36:46;;;;;;;18.98;16.00;;;6.80;99.90;;;;;;5001123;28;20487;-86
2021/03/22 00:39:13;;;;;;;18.65;15.50;;;6.70;99.90;;;;;;4997515;28;20107;-86
2021/03/22 00:41:40;;;;;;;19.13;16.27;;;6.70;99.90;;;;;;4995650;28;20053;-87
2021/03/22 00:44:07;;;;;;;21.20;15.45;;;6.70;99.90;;;;;;5003935;28;20060;-84
2021/03/22 00:46:33;;;;;;;17.77;15.90;;;6.60;99.90;;;;;;4999461;28;20049;-87
2021/03/22 00:49:04;;;;;;;21.00;16.83;;;6.60;99.90;;;;;;4989556;28;20470;-86
2021/03/22 00:51:31;;;;;;;19.67;16.33;;;6.60;99.90;;;;;;4993902;28;20054;-87
2021/03/22 00:53:57;;;;;;;24.27;17.08;;;6.60;99.90;;;;;;4993464;28;20070;-87
2021/03/22 00:56:24;;;;;;;23.17;17.73;;;6.50;99.90;;;;;;4995261;28;20072;-87
2021/03/22 00:58:51;;;;;;;22.00;17.48;;;6.50;99.90;;;;;;4992807;28;20049;-87
2021/03/22 01:01:18;;;;;;;21.63;17.40;;;6.50;99.90;;;;;;5013110;28;20045;-87
2021/03/22 01:03:45;;;;;;;21.45;17.92;;;6.50;99.90;;;;;;4993766;28;20074;-87
2021/03/22 01:06:12;;;;;;;25.20;17.67;;;6.50;99.90;;;;;;4996719;28;20048;-87
2021/03/22 01:08:41;;;;;;;23.33;17.83;;;6.50;99.90;;;;;;4993986;28;20050;-87
2021/03/22 01:11:09;;;;;;;21.38;17.40;;;6.40;99.90;;;;;;5020735;28;20395;-87
2021/03/22 01:13:48;;;;;;;21.50;17.67;;;6.40;99.90;;;;;;5015331;28;20057;-87
2021/03/22 01:16:33;;;;;;;28.13;17.60;;;6.40;99.90;;;;;;5013878;28;20323;-87
2021/03/22 01:19:07;;;;;;;22.42;17.55;;;6.40;99.90;;;;;;5009921;28;20053;-87
2021/03/22 01:21:38;;;;;;;22.25;17.80;;;6.40;99.90;;;;;;5011151;28;20046;-87
2021/03/22 01:24:07;;;;;;;22.45;17.55;;;6.40;99.90;;;;;;5013701;28;20430;-86
2021/03/22 01:26:35;;;;;;;22.20;18.38;;;6.30;99.90;;;;;;5002627;28;20438;-86
2021/03/22 01:29:27;;;;;;;24.60;18.38;;;6.30;99.90;;;;;;5029420;28;20394;-86
2021/03/22 01:31:56;;;;;;;26.50;18.20;;;6.30;99.90;;;;;;5010597;28;20049;-87
2021/03/22 01:34:24;;;;;;;26.05;19.42;;;6.30;99.90;;;;;;5015261;28;20055;-87
2021/03/22 01:36:51;;;;;;;21.30;18.53;;;6.20;99.90;;;;;;5009824;28;20080;-87
2021/03/22 01:39:22;;;;;;;24.63;18.80;;;6.20;99.90;;;;;;5019699;28;20140;-87
2021/03/22 01:42:03;;;;;;;22.02;19.02;;;6.20;99.90;;;;;;5030397;28;20049;-87
2021/03/22 01:44:52;;;;;;;22.85;18.60;;;6.20;99.90;;;;;;5013107;28;20127;-86
2021/03/22 01:47:29;;;;;;;26.85;18.92;;;6.10;99.90;;;;;;5014867;28;20049;-87
2021/03/22 01:50:04;;;;;;;24.75;19.50;;;6.10;99.90;;;;;;5012096;28;20057;-87
2021/03/22 01:52:35;;;;;;;28.10;19.75;;;6.10;99.90;;;;;;5044760;28;20118;-87
2021/03/22 01:55:05;;;;;;;25.73;20.05;;;6.00;99.90;;;;;;5009178;28;20365;-87
2021/03/22 01:57:40;;;;;;;30.70;20.23;;;6.10;99.90;;;;;;5015520;28;20506;-87
2021/03/22 02:00:23;;;;;;;27.30;19.50;;;6.10;99.90;;;;;;5017553;28;20056;-87
2021/03/22 02:02:54;;;;;;;28.05;20.45;;;6.10;99.90;;;;;;5018303;28;20058;-87
2021/03/22 02:05:25;;;;;;;29.13;20.42;;;6.00;99.90;;;;;;5017818;28;20041;-86
2021/03/22 02:08:33;;;;;;;27.80;20.40;;;6.00;99.90;;;;;;5007985;28;20049;-86
2021/03/22 02:11:00;;;;;;;27.92;21.42;;;6.00;99.90;;;;;;5013789;28;20495;-87
2021/03/22 02:13:31;;;;;;;27.80;20.50;;;5.90;99.90;;;;;;5028651;28;20052;-87
2021/03/22 02:16:06;;;;;;;28.83;20.75;;;6.00;99.90;;;;;;5017420;28;20049;-87
2021/03/22 02:18:39;;;;;;;31.20;21.23;;;5.90;99.90;;;;;;5009101;28;20125;-87
2021/03/22 02:21:18;;;;;;;28.05;20.70;;;5.90;99.90;;;;;;5024191;28;20052;-86
2021/03/22 02:24:07;;;;;;;26.48;20.70;;;5.90;99.90;;;;;;5017782;28;20442;-87
2021/03/22 02:26:40;;;;;;;;;;;5.90;99.90;;;;;;5006738;28;20060;-84
2021/03/22 02:29:28;;;;;;;28.48;20.27;;;5.90;99.90;;;;;;5007531;28;19921;-87
2021/03/22 02:32:30;;;;;;;25.98;20.42;;;5.90;99.90;;;;;;5014211;28;20140;-87
2021/03/22 02:35:07;;;;;;;28.30;21.10;;;5.80;99.90;;;;;;5015281;28;20193;-87
2021/03/22 02:37:54;;;;;;;26.25;21.25;;;5.80;99.90;;;;;;5030561;28;20045;-86
2021/03/22 02:40:46;;;;;;;32.67;21.27;;;5.80;99.90;;;;;;5017112;28;20041;-86
2021/03/22 02:43:18;;;;;;;29.10;21.65;;;5.80;99.90;;;;;;5008434;28;20077;-86
2021/03/22 02:45:45;;;;;;;34.30;22.27;;;5.80;99.90;;;;;;5013158;28;20054;-86
2021/03/22 02:48:21;;;;;;;31.38;22.98;;;5.80;99.90;;;;;;5014484;28;20045;-87
2021/03/22 02:50:52;;;;;;;30.48;21.17;;;5.70;99.90;;;;;;5012872;28;20427;-86
2021/03/22 02:53:27;;;;;;;31.23;22.02;;;5.70;99.90;;;;;;5002546;28;20049;-87
2021/03/22 02:56:17;;;;;;;30.13;22.15;;;5.70;99.90;;;;;;5015350;28;20055;-87
2021/03/22 02:59:05;;;;;;;28.35;21.92;;;5.70;99.90;;;;;;5015626;28;20417;-86
2021/03/22 03:01:38;;;;;;;30.70;22.15;;;5.70;99.90;;;;;;5017950;28;20041;-87
2021/03/22 03:04:09;;;;;;;28.80;21.80;;;5.70;99.90;;;;;;5030122;28;20107;-86
2021/03/22 03:06:50;;;;;;;34.95;22.25;;;5.70;99.90;;;;;;5018897;28;20071;-87
2021/03/22 03:09:18;;;;;;;29.75;22.63;;;5.70;99.90;;;;;;5018539;28;20046;-88
2021/03/22 03:11:45;;;;;;;30.65;21.60;;;5.60;99.90;;;;;;5012579;28;20068;-86
2021/03/22 03:14:12;;;;;;;32.38;21.05;;;5.60;99.90;;;;;;4996812;28;20054;-87
2021/03/22 03:16:39;;;;;;;30.58;22.55;;;5.60;99.90;;;;;;5006644;28;20042;-87
2021/03/22 03:19:06;;;;;;;31.95;22.58;;;5.60;99.90;;;;;;5013046;28;20069;-87
2021/03/22 03:21:33;;;;;;;35.63;22.23;;;5.60;99.90;;;;;;5003001;28;20042;-86
2021/03/22 03:24:01;;;;;;;30.05;22.73;;;5.60;99.90;;;;;;5001743;28;20058;-86
2021/03/22 03:26:28;;;;;;;34.97;22.88;;;5.60;99.90;;;;;;5013674;28;20046;-87
2021/03/22 03:28:54;;;;;;;36.78;22.60;;;5.60;99.90;;;;;;5012417;28;20053;-87
2021/03/22 03:31:21;;;;;;;32.92;22.25;;;5.60;99.90;;;;;;5013507;28;20140;-87
2021/03/22 03:33:48;;;;;;;32.97;22.20;;;5.60;99.90;;;;;;5013074;28;20054;-86
2021/03/22 03:36:16;;;;;;;32.45;22.65;;;5.60;99.90;;;;;;5008946;28;20054;-87
2021/03/22 03:38:43;;;;;;;33.03;22.77;;;5.50;99.90;;;;;;4999525;28;20061;-87
2021/03/22 03:41:10;;;;;;;33.40;22.30;;;5.50;99.90;;;;;;5005748;28;20046;-87
2021/03/22 03:43:37;;;;;;;30.33;22.13;;;5.50;99.90;;;;;;5000244;28;20109;-86
2021/03/22 03:46:04;;;;;;;32.10;21.90;;;5.50;99.90;;;;;;5002358;28;20514;-86
2021/03/22 03:48:30;;;;;;;33.28;21.75;;;5.50;99.90;;;;;;5012815;28;20049;-87
2021/03/22 03:51:00;;;;;;;32.28;22.45;;;5.50;99.90;;;;;;5011568;28;20049;-86
2021/03/22 03:53:27;;;;;;;31.13;22.25;;;5.50;99.90;;;;;;5010584;28;20073;-86
2021/03/22 03:55:55;;;;;;;33.95;22.65;;;5.50;99.90;;;;;;5010519;28;20116;-87
2021/03/22 03:58:22;;;;;;;31.55;21.85;;;5.40;99.90;;;;;;5012383;28;20042;-87
2021/03/22 04:00:49;;;;;;;34.47;23.02;;;5.40;99.90;;;;;;5011460;28;20375;-87
2021/03/22 04:03:21;;;;;;;35.83;23.15;;;5.40;99.90;;;;;;5014464;28;20440;-87
2021/03/22 04:06:12;;;;;;;35.95;23.42;;;5.40;99.90;;;;;;5012411;28;20052;-87
2021/03/22 04:08:45;;;;;;;33.05;22.17;;;5.40;99.90;;;;;;5010673;28;20053;-86
2021/03/22 04:11:21;;;;;;;33.97;23.50;;;5.40;99.90;;;;;;4995796;28;20137;-87
2021/03/22 04:13:47;;;;;;;34.80;24.17;;;5.40;99.90;;;;;;5008805;28;20050;-87
2021/03/22 04:16:15;;;;;;;38.08;24.70;;;5.40;99.90;;;;;;5010052;28;20053;-87
2021/03/22 04:18:42;;;;;;;35.05;23.45;;;5.40;99.90;;;;;;5010899;28;20049;-86
2021/03/22 04:21:12;;;;;;;35.20;23.05;;;5.40;99.90;;;;;;5004494;28;20046;-86
2021/03/22 04:23:41;;;;;;;38.58;24.80;;;5.30;99.90;;;;;;4999531;28;20104;-87
2021/03/22 04:26:08;;;;;;;39.33;24.33;;;5.30;99.90;;;;;;4994257;28;20049;-87
2021/03/22 04:28:36;;;;;;;34.38;23.83;;;5.30;99.90;;;;;;5012122;28;20058;-86
2021/03/22 04:31:04;;;;;;;38.03;24.85;;;5.20;99.90;;;;;;5011771;28;20092;-86
2021/03/22 04:33:31;;;;;;;38.72;25.23;;;5.20;99.90;;;;;;5007271;28;20073;-87
2021/03/22 04:35:58;;;;;;;37.20;24.38;;;5.20;99.90;;;;;;5008237;28;20231;-87
2021/03/22 04:38:25;;;;;;;41.88;24.88;;;5.10;99.90;;;;;;5010126;28;20050;-86
2021/03/22 04:40:51;;;;;;;37.90;24.45;;;5.10;99.90;;;;;;5018179;28;20076;-86
2021/03/22 04:43:18;;;;;;;37.00;23.55;;;5.10;99.90;;;;;;5011567;28;20046;-87
2021/03/22 04:45:45;;;;;;;35.45;23.02;;;5.00;99.90;;;;;;5006050;28;20688;-87
2021/03/22 04:48:13;;;;;;;38.35;24.20;;;5.00;99.90;;;;;;5011568;28;20341;-87
2021/03/22 04:50:41;;;;;;;37.60;23.88;;;5.00;99.90;;;;;;5009443;28;20145;-87
2021/03/22 04:53:08;;;;;;;39.97;24.10;;;4.90;99.90;;;;;;5010529;28;20384;-87
2021/03/22 04:55:34;;;;;;;35.92;23.30;;;4.90;99.90;;;;;;5023223;28;20052;-87
2021/03/22 04:58:01;;;;;;;33.35;22.98;;;4.90;99.90;;;;;;5010465;28;20046;-86
2021/03/22 05:00:37;;;;;;;34.72;22.38;;;4.80;99.90;;;;;;5011385;28;20046;-87
2021/03/22 05:03:05;;;;;;;37.10;21.90;;;4.80;99.90;;;;;;5021600;28;20042;-87
2021/03/22 05:05:33;;;;;;;36.40;23.35;;;4.80;99.90;;;;;;5014135;28;20052;-86
2021/03/22 05:08:00;;;;;;;45.53;31.90;;;4.70;99.90;;;;;;4994039;28;20065;-86
2021/03/22 05:10:31;;;;;;;37.65;22.85;;;4.70;99.90;;;;;;5011300;28;20058;-86
2021/03/22 05:12:57;;;;;;;32.58;22.48;;;4.60;99.90;;;;;;5034374;28;20046;-87
2021/03/22 05:15:24;;;;;;;33.33;21.65;;;4.60;99.90;;;;;;5015331;28;20042;-86
2021/03/22 05:17:51;;;;;;;31.98;21.38;;;4.60;99.90;;;;;;5011721;28;20046;-86
2021/03/22 05:20:43;;;;;;;29.77;21.23;;;4.50;99.90;;;;;;5000753;28;20043;-86
2021/03/22 05:23:13;;;;;;;32.90;22.10;;;4.50;99.90;;;;;;5010439;28;20451;-86
2021/03/22 05:25:41;;;;;;;32.03;22.20;;;4.50;99.90;;;;;;5001509;28;20381;-86
2021/03/22 05:28:08;;;;;;;31.63;21.63;;;4.40;99.90;;;;;;5012392;28;20050;-86
2021/03/22 05:30:36;;;;;;;34.97;22.13;;;4.40;99.90;;;;;;5022208;28;20050;-86
2021/03/22 05:33:11;;;;;;;34.53;22.87;;;4.40;99.90;;;;;;5000789;28;20064;-87
2021/03/22 05:35:39;;;;;;;33.00;21.30;;;4.30;99.90;;;;;;5010006;28;20624;-87
2021/03/22 05:38:06;;;;;;;29.23;20.67;;;4.30;99.90;;;;;;5002949;28;20133;-86
2021/03/22 05:41:07;;;;;;;34.63;22.13;;;4.30;99.90;;;;;;5010375;28;20054;-86
2021/03/22 05:43:42;;;;;;;32.03;21.75;;;4.30;99.90;;;;;;4951560;28;20054;-86
2021/03/22 05:46:49;;;;;;;33.70;21.58;;;4.20;99.90;;;;;;4955325;28;20077;-86
2021/03/22 05:49:22;;;;;;;35.45;21.85;;;4.20;99.90;;;;;;4971543;28;20061;-86
2021/03/22 05:52:34;;;;;;;42.15;23.10;;;4.20;99.90;;;;;;4954489;28;20053;-86
2021/03/22 05:55:07;;;;;;;38.47;23.15;;;4.20;99.90;;;;;;4949281;28;20051;-86
2021/03/22 05:57:43;;;;;;;34.33;22.35;;;4.20;99.90;;;;;;4954871;28;20057;-86
2021/03/22 06:00:36;;;;;;;37.75;22.65;;;4.20;99.90;;;;;;4952695;28;20078;-87
2021/03/22 06:03:03;;;;;;;34.08;21.58;;;4.20;99.90;;;;;;4954741;28;20543;-86
2021/03/22 06:05:34;;;;;;;33.47;21.23;;;4.20;99.90;;;;;;4954399;28;20114;-86
2021/03/22 06:08:24;;;;;;;32.15;20.58;;;4.20;99.90;;;;;;4955885;28;20054;-85
2021/03/22 06:10:53;;;;;;;31.90;20.63;;;4.20;99.90;;;;;;4954306;28;20508;-87
2021/03/22 06:13:28;;;;;;;35.63;23.35;;;4.20;99.90;;;;;;4959428;28;20050;-85
2021/03/22 06:16:00;;;;;;;40.72;23.17;;;4.10;99.90;;;;;;4952648;28;20050;-87
2021/03/22 06:18:43;;;;;;;34.10;22.08;;;4.20;99.90;;;;;;4968587;28;20049;-87
2021/03/22 06:21:14;;;;;;;32.92;21.33;;;4.20;99.90;;;;;;5006362;28;20493;-86
2021/03/22 06:23:44;;;;;;;34.30;22.67;;;4.20;99.90;;;;;;5002792;28;20117;-86
2021/03/22 06:26:30;;;;;;;32.47;21.73;;;4.20;99.90;;;;;;5013140;28;20057;-86
2021/03/22 06:29:05;;;;;;;32.95;21.20;;;4.20;99.90;;;;;;5024990;28;20065;-86
2021/03/22 06:31:33;;;;;;;42.78;23.00;;;4.20;99.90;;;;;;5014344;28;20065;-86
2021/03/22 06:34:07;;;;;;;35.35;22.85;;;4.20;99.90;;;;;;5012560;28;20060;-85
2021/03/22 06:36:34;;;;;;;32.80;22.02;;;4.20;99.90;;;;;;5009302;28;20049;-86
2021/03/22 06:39:06;;;;;;;37.03;21.98;;;4.20;99.90;;;;;;5012661;28;20415;-86
2021/03/22 06:41:46;;;;;;;37.97;21.80;;;4.20;99.90;;;;;;5028949;28;20045;-86
2021/03/22 06:44:13;;;;;;;44.47;23.33;;;4.30;99.90;;;;;;5008083;28;20060;-85
2021/03/22 06:46:59;;;;;;;44.30;23.10;;;4.20;99.90;;;;;;5027189;28;20089;-86
2021/03/22 06:49:28;;;;;;;37.35;22.77;;;4.30;99.90;;;;;;5017580;28;20438;-84
2021/03/22 06:52:05;;;;;;;36.83;23.88;;;4.40;99.90;;;;;;5016778;28;20119;-85
2021/03/22 06:54:36;;;;;;;37.15;23.02;;;4.40;99.90;;;;;;5020642;28;20054;-85
2021/03/22 06:57:14;;;;;;;36.92;22.90;;;4.40;99.90;;;;;;5016193;28;20091;-86
2021/03/22 07:00:07;;;;;;;39.67;23.30;;;4.50;99.90;;;;;;5017343;28;20080;-86
2021/03/22 07:02:45;;;;;;;42.63;22.95;;;4.50;99.90;;;;;;5013486;28;20076;-86
2021/03/22 07:05:27;;;;;;;41.50;23.67;;;4.60;99.90;;;;;;5017968;28;20057;-85
2021/03/22 07:08:08;;;;;;;36.55;23.80;;;4.60;99.90;;;;;;5019526;28;20049;-85
2021/03/22 07:11:06;;;;;;;39.88;23.63;;;4.70;99.90;;;;;;5027977;28;20769;-83
2021/03/22 07:13:34;;;;;;;41.00;23.88;;;4.70;99.90;;;;;;5013548;28;20057;-85
2021/03/22 07:16:10;;;;;;;35.47;23.53;;;4.70;99.90;;;;;;5014180;28;20045;-85
2021/03/22 07:18:37;;;;;;;40.25;23.63;;;4.80;99.90;;;;;;5027797;28;20073;-85
2021/03/22 07:21:13;;;;;;;39.70;22.73;;;4.90;99.90;;;;;;5013032;28;20092;-85
2021/03/22 07:23:46;;;;;;;33.13;22.15;;;4.90;99.90;;;;;;5018986;28;20052;-86
2021/03/22 07:26:32;;;;;;;35.03;23.58;;;5.00;99.90;;;;;;5016549;28;20116;-85
2021/03/22 07:29:46;;;;;;;33.55;22.63;;;5.10;99.90;;;;;;5016182;28;20057;-85
2021/03/22 07:32:45;;;;;;;31.63;21.38;;;5.20;99.90;;;;;;5019765;28;20459;-85
2021/03/22 07:35:46;;;;;;;28.92;21.00;;;5.30;99.90;;;;;;5031584;28;20053;-85
2021/03/22 07:38:37;;;;;;;31.75;21.23;;;5.40;99.90;;;;;;5016056;28;20042;-85
2021/03/22 07:41:36;;;;;;;28.80;21.98;;;5.40;99.90;;;;;;5014974;28;20060;-86
2021/03/22 07:44:18;;;;;;;30.63;21.30;;;5.50;99.90;;;;;;5031061;28;20479;-85
2021/03/22 07:46:53;;;;;;;27.42;19.95;;;5.60;99.90;;;;;;5029323;28;20053;-85
2021/03/22 07:49:38;;;;;;;28.92;21.23;;;5.70;99.90;;;;;;5016917;28;20049;-87
2021/03/22 07:52:27;;;;;;;31.65;23.48;;;5.90;99.90;;;;;;5022645;28;20046;-86
2021/03/22 07:54:56;;;;;;;30.33;22.17;;;6.00;99.90;;;;;;5006750;28;20076;-85
2021/03/22 07:57:50;;;;;;;31.10;21.48;;;6.10;99.90;;;;;;5023438;28;20049;-86
2021/03/22 08:00:30;;;;;;;27.25;20.48;;;6.30;99.90;;;;;;5014027;28;20049;-85
2021/03/22 08:03:23;;;;;;;23.08;18.80;;;6.40;99.90;;;;;;5007959;28;20440;-86
2021/03/22 08:06:21;;;;;;;21.83;18.48;;;6.60;99.90;;;;;;5014375;28;20144;-85
2021/03/22 08:09:13;;;;;;;21.48;17.67;;;6.70;99.90;;;;;;5013383;28;20057;-86
2021/03/22 08:11:54;;;;;;;21.52;17.52;;;6.90;99.90;;;;;;5015326;28;20061;-85
2021/03/22 08:14:37;;;;;;;19.90;15.82;;;7.00;99.90;;;;;;5002833;28;20458;-86
2021/03/22 08:17:29;;;;;;;21.73;16.33;;;7.20;99.90;;;;;;5013628;28;20052;-86
2021/03/22 08:20:10;;;;;;;23.60;17.27;;;7.30;99.90;;;;;;5029009;28;20060;-85
2021/03/22 08:22:56;;;;;;;19.60;15.90;;;7.50;99.90;;;;;;5012533;28;20499;-85
2021/03/22 08:25:22;;;;;;;23.58;17.25;;;7.60;99.90;;;;;;5030573;28;20588;-86
2021/03/22 08:28:21;;;;;;;23.08;17.33;;;7.70;99.90;;;;;;5017803;28;20045;-85
2021/03/22 08:31:08;;;;;;;20.15;14.95;;;7.90;99.90;;;;;;5033982;28;20055;-85
2021/03/22 08:33:35;;;;;;;17.73;14.27;;;8.00;99.90;;;;;;5015244;28;20444;-85
2021/03/22 08:36:20;;;;;;;16.38;13.07;;;8.10;99.90;;;;;;5016861;28;20307;-85
2021/03/22 08:38:55;;;;;;;14.32;12.18;;;8.30;99.90;;;;;;5011069;28;20057;-85
2021/03/22 08:41:33;;;;;;;16.88;12.48;;;8.40;99.90;;;;;;5014491;28;20056;-85
2021/03/22 08:44:08;;;;;;;19.92;12.50;;;8.50;99.90;;;;;;5013529;28;20372;-85
2021/03/22 08:46:40;;;;;;;18.25;11.95;;;8.60;99.90;;;;;;5028173;28;20057;-85
2021/03/22 08:49:41;;;;;;;13.90;11.20;;;8.80;99.90;;;;;;5030648;28;20050;-85
2021/03/22 08:52:37;;;;;;;15.95;11.27;;;8.90;99.90;;;;;;5031951;28;20060;-86
2021/03/22 08:55:16;;;;;;;12.75;10.13;;;9.00;99.90;;;;;;4952599;28;20047;-86
2021/03/22 08:58:04;;;;;;;14.80;10.48;;;9.20;99.90;;;;;;4937999;29;20051;-86
2021/03/22 09:00:43;;;;;;;13.38;10.02;;;9.30;99.90;;;;;;4937768;29;20059;-85
2021/03/22 09:03:16;;;;;;;12.38;9.88;;;9.40;99.90;;;;;;4939499;29;20457;-86
2021/03/22 09:06:06;;;;;;;13.43;9.05;;;9.50;99.90;;;;;;4951827;28;20142;-86
2021/03/22 09:08:40;;;;;;;16.08;10.30;;;9.70;99.90;;;;;;4938913;29;20051;-86
2021/03/22 09:11:34;;;;;;;12.02;9.40;;;9.80;99.90;;;;;;4927319;29;20094;-85
2021/03/22 09:14:02;;;;;;;19.45;9.90;;;9.90;99.90;;;;;;4962832;28;20055;-86
2021/03/22 09:16:41;;;;;;;13.63;8.73;;;10.00;99.90;;;;;;4962929;28;20047;-86
2021/03/22 09:19:13;;;;;;;12.32;9.00;;;10.10;99.90;;;;;;4952247;28;20109;-85
2021/03/22 09:22:11;;;;;;;13.20;8.68;;;10.20;99.90;;;;;;4950066;28;20047;-85
2021/03/22 09:27:29;;;;;;;10.48;8.80;;;10.40;99.90;;;;;;4950389;28;20050;-85
2021/03/22 09:30:01;;;;;;;12.27;8.30;;;10.50;99.90;;;;;;4950737;28;20474;-85
2021/03/22 09:32:35;;;;;;;9.80;7.93;;;10.70;99.90;;;;;;4998247;28;20041;-86
2021/03/22 09:35:16;;;;;;;12.02;8.57;;;10.70;99.90;;;;;;5021065;28;20053;-86
2021/03/22 09:38:01;;;;;;;11.88;7.78;;;10.90;99.90;;;;;;5028047;28;20447;-86
2021/03/22 09:40:27;;;;;;;12.05;7.35;;;10.90;99.90;;;;;;5011455;28;20725;-86
2021/03/22 09:43:06;;;;;;;11.38;8.05;;;11.00;99.90;;;;;;5027857;28;20050;-86
2021/03/22 09:45:55;;;;;;;14.27;8.50;;;11.20;99.90;;;;;;5014611;28;20140;-86
2021/03/22 09:48:27;;;;;;;9.00;8.10;;;11.30;99.90;;;;;;5008096;28;20112;-86
2021/03/22 09:51:03;;;;;;;13.10;8.70;;;11.40;99.90;;;;;;5021310;28;20091;-86
2021/03/22 09:53:49;;;;;;;8.10;7.30;;;11.40;99.90;;;;;;5039036;28;20057;-86
2021/03/22 09:56:41;;;;;;;9.65;7.63;;;11.50;99.90;;;;;;5018677;28;20049;-86
2021/03/22 09:59:33;;;;;;;11.43;9.07;;;11.60;99.90;;;;;;5010420;28;20050;-86
2021/03/22 10:02:45;;;;;;;11.68;8.43;;;11.70;99.90;;;;;;5011481;28;20061;-86
2021/03/22 10:05:22;;;;;;;11.52;8.73;;;11.80;99.90;;;;;;4996898;28;20049;-86
2021/03/22 10:07:58;;;;;;;13.45;8.13;;;11.90;99.90;;;;;;5013729;28;20060;-86
2021/03/22 10:10:38;;;;;;;10.20;8.30;;;11.90;99.90;;;;;;5029392;28;20046;-86
2021/03/22 10:13:32;;;;;;;10.68;8.57;;;12.00;99.90;;;;;;5014276;28;20054;-86
2021/03/22 10:16:35;;;;;;;9.60;7.57;;;12.10;99.90;;;;;;5007503;28;20056;-86
2021/03/22 10:19:12;;;;;;;9.48;7.28;;;12.20;99.90;;;;;;5002449;28;20471;-86
2021/03/22 10:21:45;;;;;;;9.63;7.55;;;12.20;99.90;;;;;;5016145;28;20444;-86
2021/03/22 10:24:26;;;;;;;12.95;7.78;;;12.20;99.90;;;;;;5015513;28;20049;-86
2021/03/22 10:26:56;;;;;;;7.55;6.47;;;12.30;99.90;;;;;;5026614;28;20145;-86
2021/03/22 10:29:23;;;;;;;8.32;6.68;;;12.40;99.90;;;;;;5016490;28;20136;-86
2021/03/22 10:32:05;;;;;;;11.25;7.15;;;12.50;99.90;;;;;;5015243;28;20464;-86
2021/03/22 10:34:55;;;;;;;9.68;7.28;;;12.70;99.90;;;;;;5015360;28;20081;-86
2021/03/22 10:37:33;;;;;;;10.80;7.88;;;13.00;99.90;;;;;;5016070;28;20494;-86
2021/03/22 10:40:03;;;;;;;12.23;6.95;;;13.20;99.90;;;;;;5033588;28;20060;-87
2021/03/22 10:42:30;;;;;;;10.85;7.30;;;13.40;99.90;;;;;;5013839;28;20374;-86
2021/03/22 10:44:57;;;;;;;11.25;7.97;;;13.60;99.90;;;;;;5022586;28;20368;-87
2021/03/22 10:47:29;;;;;;;9.70;7.07;;;13.70;99.90;;;;;;5016998;28;20052;-87
2021/03/22 10:50:14;;;;;;;10.52;7.07;;;13.80;99.90;;;;;;5000833;28;20495;-87
2021/03/22 10:52:41;;;;;;;10.43;5.80;;;13.90;99.90;;;;;;5018321;28;20069;-87
2021/03/22 10:55:26;;;;;;;11.82;6.03;;;13.80;99.90;;;;;;5013097;28;20049;-87
2021/03/22 10:57:55;;;;;;;9.82;6.63;;;13.60;99.90;;;;;;5012281;28;20104;-86
2021/03/22 11:00:33;;;;;;;6.88;6.10;;;13.60;99.90;;;;;;5011494;28;20091;-87
2021/03/22 11:03:08;;;;;;;8.45;6.60;;;13.50;99.90;;;;;;5016951;28;20080;-86
2021/03/22 11:05:40;;;;;;;;;;;13.40;99.90;;;;;;5025205;28;20053;-86
2021/03/22 11:08:24;;;;;;;8.13;6.20;;;13.20;99.90;;;;;;5014463;28;19929;-85
2021/03/22 11:11:06;;;;;;;7.38;5.68;;;13.20;99.90;;;;;;5005507;28;20061;-86
2021/03/22 11:13:43;;;;;;;7.75;5.13;;;13.40;99.90;;;;;;5019086;28;20054;-86
2021/03/22 11:16:28;;;;;;;8.67;5.30;;;13.60;99.90;;;;;;5016931;28;20077;-87
2021/03/22 11:18:56;;;;;;;7.10;5.53;;;13.70;99.90;;;;;;5014195;28;20045;-86
2021/03/22 11:21:28;;;;;;;8.57;5.82;;;13.90;99.90;;;;;;5016575;28;20045;-87
2021/03/22 11:23:57;;;;;;;7.72;5.72;;;14.00;99.90;;;;;;5015312;28;20088;-87
2021/03/22 11:26:26;;;;;;;;;;;14.00;99.90;;;;;;5016476;28;20463;-86
2021/03/22 11:29:19;;;;;;;8.27;5.43;;;14.10;99.90;;;;;;5014307;28;19980;-86
2021/03/22 11:31:49;;;;;;;9.73;5.90;;;14.10;99.90;;;;;;5013211;28;20056;-87
2021/03/22 11:34:29;;;;;;;8.80;5.45;;;14.10;99.90;;;;;;5033019;28;20423;-86
2021/03/22 11:37:14;;;;;;;6.88;5.43;;;14.10;99.90;;;;;;5017871;28;20077;-87
2021/03/22 11:39:42;;;;;;;6.97;5.07;;;14.20;99.90;;;;;;5015844;28;20041;-87
2021/03/22 11:42:25;;;;;;;7.32;4.88;;;14.30;99.90;;;;;;5009691;28;20131;-87
2021/03/22 11:44:53;;;;;;;7.53;5.45;;;14.50;99.90;;;;;;5020752;28;20057;-87
2021/03/22 11:47:37;;;;;;;7.75;5.15;;;14.70;99.90;;;;;;5012644;28;20538;-86
2021/03/22 11:50:32;;;;;;;8.60;5.72;;;14.80;99.90;;;;;;5015106;28;20053;-87
2021/03/22 11:53:20;;;;;;;6.47;5.07;;;14.90;99.90;;;;;;5012488;28;20068;-87
2021/03/22 11:55:53;;;;;;;8.70;4.57;;;15.00;99.90;;;;;;5013950;28;20046;-87
2021/03/22 11:58:29;;;;;;;8.63;5.20;;;15.10;99.90;;;;;;5014421;28;20061;-86
2021/03/22 12:01:14;;;;;;;7.05;6.07;;;15.20;99.90;;;;;;5011395;28;20053;-86
2021/03/22 12:03:47;;;;;;;8.15;5.82;;;15.10;99.90;;;;;;5013444;28;20056;-86
2021/03/22 12:06:23;;;;;;;8.48;6.00;;;15.00;99.90;;;;;;5013291;28;20049;-86
2021/03/22 12:08:51;;;;;;;8.93;6.57;;;14.60;99.90;;;;;;5011648;28;20056;-86
2021/03/22 12:11:23;;;;;;;6.20;5.60;;;14.30;99.90;;;;;;5013433;28;20061;-85
2021/03/22 12:13:55;;;;;;;7.82;5.88;;;14.00;99.90;;;;;;5021114;28;20046;-86
2021/03/22 12:16:32;;;;;;;8.15;5.63;;;13.90;99.90;;;;;;5020180;28;20059;-86
2021/03/22 12:19:07;;;;;;;7.65;5.35;;;13.70;99.90;;;;;;5021065;28;20148;-85
2021/03/22 12:21:36;;;;;;;8.25;5.68;;;13.60;99.90;;;;;;5018502;28;20050;-86
2021/03/22 12:24:04;;;;;;;8.68;6.13;;;13.50;99.90;;;;;;5011284;28;20777;-87
2021/03/22 12:26:32;;;;;;;6.72;5.68;;;13.40;99.90;;;;;;5014635;28;20053;-86
2021/03/22 12:29:02;;;;;;;8.48;5.68;;;13.20;99.90;;;;;;5014737;28;20057;-87
2021/03/22 12:31:33;;;;;;;6.95;5.60;;;13.20;99.90;;;;;;5016060;28;20046;-86
2021/03/22 12:34:03;;;;;;;6.00;5.10;;;13.30;99.90;;;;;;5016521;28;20104;-86
2021/03/22 12:36:31;;;;;;;7.18;5.68;;;13.60;99.90;;;;;;5015258;28;20258;-87
2021/03/22 12:38:58;;;;;;;8.38;5.15;;;13.80;99.90;;;;;;5015116;28;20160;-87
2021/03/22 12:41:29;;;;;;;7.65;5.22;;;14.00;99.90;;;;;;5030480;28;20053;-86
2021/03/22 12:44:00;;;;;;;7.40;4.78;;;14.30;99.90;;;;;;5012516;28;20415;-87
2021/03/22 12:46:27;;;;;;;7.57;5.03;;;14.60;99.90;;;;;;5033379;28;20103;-86
2021/03/22 12:48:54;;;;;;;6.13;4.63;;;14.70;99.90;;;;;;5014669;28;20390;-87
2021/03/22 12:51:21;;;;;;;7.30;5.03;;;14.60;99.50;;;;;;5009819;28;20144;-86
2021/03/22 12:53:48;;;;;;;7.90;4.63;;;14.60;99.40;;;;;;5010888;28;20464;-87
2021/03/22 12:56:17;;;;;;;4.90;4.20;;;14.50;99.10;;;;;;5013261;28;20052;-87
2021/03/22 12:58:43;;;;;;;;;;;14.50;99.50;;;;;;5016158;28;20057;-86
2021/03/22 13:01:15;;;;;;;5.43;4.30;;;14.50;99.20;;;;;;5013893;28;20351;-86
2021/03/22 13:03:42;;;;;;;6.05;4.35;;;14.60;99.80;;;;;;5014630;28;20037;-87
2021/03/22 13:06:09;;;;;;;5.10;4.28;;;14.60;99.90;;;;;;5010702;28;20060;-86
2021/03/22 13:08:36;;;;;;;6.28;4.82;;;14.80;99.90;;;;;;5014868;28;20038;-86
2021/03/22 13:11:06;;;;;;;5.40;4.38;;;14.80;99.70;;;;;;5007820;28;20506;-87
2021/03/22 13:13:32;;;;;;;6.07;4.38;;;14.90;99.70;;;;;;4996759;28;20042;-87
2021/03/22 13:16:00;;;;;;;6.80;4.50;;;14.90;99.20;;;;;;4987687;28;20464;-87
2021/03/22 13:18:32;;;;;;;6.45;5.05;;;14.80;98.90;;;;;;4994732;28;20468;-86
2021/03/22 13:21:15;;;;;;;5.10;4.55;;;14.80;98.30;;;;;;5008458;28;20076;-87
2021/03/22 13:23:43;;;;;;;5.25;4.55;;;14.60;98.30;;;;;;4993387;28;20038;-86